sensor_id;sensor_type;location;lat;lon;timestamp;pressure;altitude;pressure_sealevel;temperature;humidity
71697;BME280;68167;59.120;37.898;2023-04-01T00:01:05;98776.16;;;0.03;63.26
71697;BME280;68167;59.120;37.898;2023-04-01T00:03:33;98746.38;;;-0.21;63.71
71697;BME280;68167;59.120;37.898;2023-04-01T00:06:00;98786.69;;;-0.04;63.54
71697;BME280;68167;59.120;37.898;2023-04-01T00:08:27;98769.88;;;-0.14;63.90
71697;BME280;68167;59.120;37.898;2023-04-01T00:10:54;98774.94;;;-0.19;63.95
71697;BME280;68167;59.120;37.898;2023-04-01T00:13:20;98779.75;;;-0.16;63.63
71697;BME280;68167;59.120;37.898;2023-04-01T00:15:47;98778.78;;;-0.22;63.99
71697;BME280;68167;59.120;37.898;2023-04-01T00:18:14;98719.50;;;-0.59;63.78
71697;BME280;68167;59.120;37.898;2023-04-01T00:20:46;98751.31;;;-0.38;63.65
71697;BME280;68167;59.120;37.898;2023-04-01T00:23:13;98749.13;;;-0.41;64.13
71697;BME280;68167;59.120;37.898;2023-04-01T00:25:40;98774.81;;;-0.31;63.68
71697;BME280;68167;59.120;37.898;2023-04-01T00:28:06;98702.75;;;-0.77;64.12
71697;BME280;68167;59.120;37.898;2023-04-01T00:30:32;98777.38;;;-0.24;63.85
71697;BME280;68167;59.120;37.898;2023-04-01T00:32:59;98774.81;;;-0.31;63.94
71697;BME280;68167;59.120;37.898;2023-04-01T00:35:25;98743.53;;;-0.44;63.84
71697;BME280;68167;59.120;37.898;2023-04-01T00:37:51;98695.31;;;-0.80;63.76
71697;BME280;68167;59.120;37.898;2023-04-01T00:40:27;98759.53;;;-0.34;63.83
71697;BME280;68167;59.120;37.898;2023-04-01T00:42:54;98773.22;;;-0.32;63.78
71697;BME280;68167;59.120;37.898;2023-04-01T00:45:34;98772.19;;;-0.31;63.71
71697;BME280;68167;59.120;37.898;2023-04-01T00:48:07;98688.34;;;-0.86;63.90
71697;BME280;68167;59.120;37.898;2023-04-01T00:50:36;98759.22;;;-0.44;64.49
71697;BME280;68167;59.120;37.898;2023-04-01T00:53:04;98701.34;;;-0.79;64.42
71697;BME280;68167;59.120;37.898;2023-04-01T00:55:34;98754.34;;;-0.41;64.30
71697;BME280;68167;59.120;37.898;2023-04-01T00:58:04;98697.53;;;-0.77;64.23
71697;BME280;68167;59.120;37.898;2023-04-01T01:00:32;98683.44;;;-0.76;64.40
71697;BME280;68167;59.120;37.898;2023-04-01T01:02:58;98744.91;;;-0.42;64.54
71697;BME280;68167;59.120;37.898;2023-04-01T01:05:44;98692.28;;;-0.77;64.07
71697;BME280;68167;59.120;37.898;2023-04-01T01:08:52;98765.38;;;-0.32;63.94
71697;BME280;68167;59.120;37.898;2023-04-01T01:11:50;98766.53;;;-0.28;64.22
71697;BME280;68167;59.120;37.898;2023-04-01T01:16:59;98707.56;;;-0.74;64.45
71697;BME280;68167;59.120;37.898;2023-04-01T01:27:49;98769.31;;;-0.54;63.99
71697;BME280;68167;59.120;37.898;2023-04-01T01:33:06;98787.75;;;-0.43;64.47
71697;BME280;68167;59.120;37.898;2023-04-01T01:35:44;98712.09;;;-0.94;64.32
71697;BME280;68167;59.120;37.898;2023-04-01T01:38:21;98780.81;;;-0.62;64.40
71697;BME280;68167;59.120;37.898;2023-04-01T01:40:59;98764.44;;;-0.76;64.99
71697;BME280;68167;59.120;37.898;2023-04-01T01:43:35;98760.03;;;-0.82;64.67
71697;BME280;68167;59.120;37.898;2023-04-01T01:46:08;98782.50;;;-0.74;64.85
71697;BME280;68167;59.120;37.898;2023-04-01T01:48:36;98760.47;;;-0.85;65.00
71697;BME280;68167;59.120;37.898;2023-04-01T01:51:05;98773.06;;;-0.75;64.96
71697;BME280;68167;59.120;37.898;2023-04-01T01:53:32;98730.25;;;-1.12;65.17
71697;BME280;68167;59.120;37.898;2023-04-01T01:55:58;98661.38;;;-1.56;65.32
71697;BME280;68167;59.120;37.898;2023-04-01T02:01:12;98759.50;;;-0.97;65.42
71697;BME280;68167;59.120;37.898;2023-04-01T02:03:42;98744.50;;;-1.15;66.06
71697;BME280;68167;59.120;37.898;2023-04-01T02:06:13;98721.69;;;-1.33;66.43
71697;BME280;68167;59.120;37.898;2023-04-01T02:08:45;98696.66;;;-1.47;66.21
71697;BME280;68167;59.120;37.898;2023-04-01T02:11:16;98764.97;;;-1.12;66.65
71697;BME280;68167;59.120;37.898;2023-04-01T02:13:54;98769.19;;;-1.11;66.73
71697;BME280;68167;59.120;37.898;2023-04-01T02:16:51;98782.44;;;-1.12;66.85
71697;BME280;68167;59.120;37.898;2023-04-01T02:19:22;98773.03;;;-1.20;67.83
71697;BME280;68167;59.120;37.898;2023-04-01T02:21:57;98766.69;;;-1.37;67.41
71697;BME280;68167;59.120;37.898;2023-04-01T02:24:25;98760.25;;;-1.35;67.56
71697;BME280;68167;59.120;37.898;2023-04-01T02:26:52;98776.06;;;-1.29;67.93
71697;BME280;68167;59.120;37.898;2023-04-01T02:29:21;98775.72;;;-1.33;68.08
71697;BME280;68167;59.120;37.898;2023-04-01T02:31:49;98676.91;;;-1.94;67.77
71697;BME280;68167;59.120;37.898;2023-04-01T02:34:16;98776.72;;;-1.34;67.84
71697;BME280;68167;59.120;37.898;2023-04-01T02:36:43;98778.47;;;-1.28;67.76
71697;BME280;68167;59.120;37.898;2023-04-01T02:39:09;98780.88;;;-1.26;67.65
71697;BME280;68167;59.120;37.898;2023-04-01T02:41:43;98759.03;;;-1.32;67.54
71697;BME280;68167;59.120;37.898;2023-04-01T02:44:12;98716.97;;;-1.69;67.82
71697;BME280;68167;59.120;37.898;2023-04-01T02:46:38;98779.47;;;-1.29;67.92
71697;BME280;68167;59.120;37.898;2023-04-01T02:49:05;98788.13;;;-1.28;67.46
71697;BME280;68167;59.120;37.898;2023-04-01T02:51:32;98736.81;;;-1.54;68.00
71697;BME280;68167;59.120;37.898;2023-04-01T02:53:59;98735.22;;;-1.62;67.96
71697;BME280;68167;59.120;37.898;2023-04-01T02:56:25;98770.53;;;-1.46;68.50
71697;BME280;68167;59.120;37.898;2023-04-01T02:58:52;98783.94;;;-1.36;68.19
71697;BME280;68167;59.120;37.898;2023-04-01T03:01:19;98786.38;;;-1.41;68.73
71697;BME280;68167;59.120;37.898;2023-04-01T03:03:46;98763.91;;;-1.49;68.47
71697;BME280;68167;59.120;37.898;2023-04-01T03:06:13;98732.84;;;-1.70;68.59
71697;BME280;68167;59.120;37.898;2023-04-01T03:08:41;98714.41;;;-1.82;68.35
71697;BME280;68167;59.120;37.898;2023-04-01T03:11:09;98778.53;;;-1.35;68.74
71697;BME280;68167;59.120;37.898;2023-04-01T03:13:36;98764.28;;;-1.39;68.70
71697;BME280;68167;59.120;37.898;2023-04-01T03:16:03;98593.00;;;-2.49;68.97
71697;BME280;68167;59.120;37.898;2023-04-01T03:18:29;98764.88;;;-1.37;68.89
71697;BME280;68167;59.120;37.898;2023-04-01T03:20:57;98698.75;;;-1.75;69.00
71697;BME280;68167;59.120;37.898;2023-04-01T03:23:23;98773.09;;;-1.33;68.70
71697;BME280;68167;59.120;37.898;2023-04-01T03:25:50;98712.34;;;-1.60;68.99
71697;BME280;68167;59.120;37.898;2023-04-01T03:28:17;98757.38;;;-1.26;68.68
71697;BME280;68167;59.120;37.898;2023-04-01T03:30:43;98711.72;;;-1.55;68.74
71697;BME280;68167;59.120;37.898;2023-04-01T03:33:10;98677.66;;;-1.74;68.57
71697;BME280;68167;59.120;37.898;2023-04-01T03:35:36;98753.56;;;-1.24;69.02
71697;BME280;68167;59.120;37.898;2023-04-01T03:38:02;98725.34;;;-1.47;69.06
71697;BME280;68167;59.120;37.898;2023-04-01T03:40:29;98757.38;;;-1.26;68.67
71697;BME280;68167;59.120;37.898;2023-04-01T03:42:55;98708.91;;;-1.54;68.92
71697;BME280;68167;59.120;37.898;2023-04-01T03:45:22;98775.22;;;-1.10;69.05
71697;BME280;68167;59.120;37.898;2023-04-01T03:47:48;98786.66;;;-1.05;68.74
71697;BME280;68167;59.120;37.898;2023-04-01T03:50:15;98773.56;;;-0.98;68.64
71697;BME280;68167;59.120;37.898;2023-04-01T03:52:42;98765.72;;;-0.98;68.63
71697;BME280;68167;59.120;37.898;2023-04-01T03:55:08;98707.97;;;-1.21;68.54
71697;BME280;68167;59.120;37.898;2023-04-01T03:57:35;98708.56;;;-1.19;68.70
71697;BME280;68167;59.120;37.898;2023-04-01T04:00:12;98715.16;;;-1.10;68.38
71697;BME280;68167;59.120;37.898;2023-04-01T04:02:44;98748.81;;;-0.89;68.27
71697;BME280;68167;59.120;37.898;2023-04-01T04:05:13;98745.38;;;-0.83;68.07
71697;BME280;68167;59.120;37.898;2023-04-01T04:07:40;98704.91;;;-1.05;67.93
71697;BME280;68167;59.120;37.898;2023-04-01T04:10:08;98792.41;;;-0.51;68.39
71697;BME280;68167;59.120;37.898;2023-04-01T04:12:35;98786.38;;;-0.52;68.25
71697;BME280;68167;59.120;37.898;2023-04-01T04:15:01;98703.06;;;-0.98;68.15
71697;BME280;68167;59.120;37.898;2023-04-01T04:17:27;98779.09;;;-0.43;67.81
71697;BME280;68167;59.120;37.898;2023-04-01T04:19:54;98697.34;;;-0.82;68.28
71697;BME280;68167;59.120;37.898;2023-04-01T04:22:21;98788.88;;;-0.32;68.32
71697;BME280;68167;59.120;37.898;2023-04-01T04:24:47;98776.00;;;-0.27;68.04
71697;BME280;68167;59.120;37.898;2023-04-01T04:27:13;98787.16;;;-0.13;67.89
71697;BME280;68167;59.120;37.898;2023-04-01T04:30:01;98787.31;;;-0.08;67.85
71697;BME280;68167;59.120;37.898;2023-04-01T04:32:27;98779.28;;;-0.07;68.00
71697;BME280;68167;59.120;37.898;2023-04-01T04:34:53;98702.34;;;-0.49;67.91
71697;BME280;68167;59.120;37.898;2023-04-01T04:37:20;98776.75;;;0.05;67.53
71697;BME280;68167;59.120;37.898;2023-04-01T04:39:46;98782.50;;;0.14;67.84
71697;BME280;68167;59.120;37.898;2023-04-01T04:42:12;98790.88;;;0.22;67.95
71697;BME280;68167;59.120;37.898;2023-04-01T04:44:40;98792.50;;;0.23;67.51
71697;BME280;68167;59.120;37.898;2023-04-01T04:47:06;98786.84;;;0.26;67.81
71697;BME280;68167;59.120;37.898;2023-04-01T04:49:32;98722.53;;;-0.06;67.26
71697;BME280;68167;59.120;37.898;2023-04-01T04:52:04;98722.25;;;0.02;67.38
71697;BME280;68167;59.120;37.898;2023-04-01T04:54:30;98809.94;;;0.54;67.25
71697;BME280;68167;59.120;37.898;2023-04-01T04:56:58;98803.97;;;0.65;66.98
71697;BME280;68167;59.120;37.898;2023-04-01T04:59:27;98750.06;;;0.40;67.17
71697;BME280;68167;59.120;37.898;2023-04-01T05:02:16;98802.72;;;0.68;66.81
71697;BME280;68167;59.120;37.898;2023-04-01T05:04:42;98796.47;;;0.69;66.90
71697;BME280;68167;59.120;37.898;2023-04-01T05:07:10;98808.84;;;0.80;66.24
71697;BME280;68167;59.120;37.898;2023-04-01T05:09:36;98785.09;;;0.63;65.68
71697;BME280;68167;59.120;37.898;2023-04-01T05:12:03;98750.22;;;0.45;66.06
71697;BME280;68167;59.120;37.898;2023-04-01T05:14:44;98805.88;;;0.77;65.72
71697;BME280;68167;59.120;37.898;2023-04-01T05:17:11;98798.06;;;0.70;65.40
71697;BME280;68167;59.120;37.898;2023-04-01T05:19:38;98810.53;;;0.75;65.16
71697;BME280;68167;59.120;37.898;2023-04-01T05:22:06;98779.31;;;0.55;65.58
71697;BME280;68167;59.120;37.898;2023-04-01T05:24:33;98809.94;;;0.91;65.76
71697;BME280;68167;59.120;37.898;2023-04-01T05:27:25;98808.56;;;1.07;65.58
71697;BME280;68167;59.120;37.898;2023-04-01T05:29:51;98731.69;;;0.64;65.00
71697;BME280;68167;59.120;37.898;2023-04-01T05:32:50;98748.25;;;0.77;64.63
71697;BME280;68167;59.120;37.898;2023-04-01T05:35:16;98752.69;;;0.94;64.71
71697;BME280;68167;59.120;37.898;2023-04-01T05:37:43;98824.47;;;1.42;64.85
71697;BME280;68167;59.120;37.898;2023-04-01T05:40:09;98737.09;;;0.99;64.26
71697;BME280;68167;59.120;37.898;2023-04-01T05:42:36;98781.81;;;1.35;64.62
71697;BME280;68167;59.120;37.898;2023-04-01T05:45:02;98718.34;;;1.03;64.47
71697;BME280;68167;59.120;37.898;2023-04-01T05:47:47;98748.41;;;1.30;64.18
71697;BME280;68167;59.120;37.898;2023-04-01T05:50:14;98820.56;;;1.92;63.60
71697;BME280;68167;59.120;37.898;2023-04-01T05:52:41;98765.19;;;1.71;63.95
71697;BME280;68167;59.120;37.898;2023-04-01T05:55:07;98778.22;;;1.89;63.34
71697;BME280;68167;59.120;37.898;2023-04-01T05:57:34;98806.53;;;2.10;63.02
71697;BME280;68167;59.120;37.898;2023-04-01T06:00:01;98755.97;;;1.91;62.97
71697;BME280;68167;59.120;37.898;2023-04-01T06:02:38;98819.13;;;2.43;62.61
71697;BME280;68167;59.120;37.898;2023-04-01T06:05:19;98816.97;;;2.52;62.64
71697;BME280;68167;59.120;37.898;2023-04-01T06:07:46;98761.25;;;2.26;62.36
71697;BME280;68167;59.120;37.898;2023-04-01T06:10:20;98747.91;;;2.28;62.04
71697;BME280;68167;59.120;37.898;2023-04-01T06:18:56;98822.41;;;2.97;61.52
71697;BME280;68167;59.120;37.898;2023-04-01T06:32:44;98758.34;;;2.75;60.39
71697;BME280;68167;59.120;37.898;2023-04-01T06:38:13;98822.78;;;3.29;60.51
71697;BME280;68167;59.120;37.898;2023-04-01T06:46:06;98748.69;;;3.32;59.90
71697;BME280;68167;59.120;37.898;2023-04-01T06:55:44;98775.09;;;3.99;58.40
71697;BME280;68167;59.120;37.898;2023-04-01T06:58:29;98809.59;;;4.31;58.23
71697;BME280;68167;59.120;37.898;2023-04-01T07:00:59;98817.66;;;4.41;57.20
71697;BME280;68167;59.120;37.898;2023-04-01T07:03:38;98808.84;;;4.52;57.79
71697;BME280;68167;59.120;37.898;2023-04-01T07:06:27;98793.28;;;4.51;58.27
71697;BME280;68167;59.120;37.898;2023-04-01T07:08:59;98748.75;;;4.33;57.02
71697;BME280;68167;59.120;37.898;2023-04-01T07:11:39;98772.25;;;4.56;56.67
71697;BME280;68167;59.120;37.898;2023-04-01T07:14:32;98785.72;;;4.76;56.25
71697;BME280;68167;59.120;37.898;2023-04-01T07:17:08;98793.28;;;4.89;55.62
71697;BME280;68167;59.120;37.898;2023-04-01T07:19:38;98818.63;;;5.12;56.28
71697;BME280;68167;59.120;37.898;2023-04-01T07:25:24;98816.16;;;5.27;55.24
71697;BME280;68167;59.120;37.898;2023-04-01T07:28:14;98752.50;;;4.97;55.51
71697;BME280;68167;59.120;37.898;2023-04-01T07:37:31;98822.50;;;5.75;54.79
71697;BME280;68167;59.120;37.898;2023-04-01T07:59:03;98780.16;;;5.65;52.06
71697;BME280;68167;59.120;37.898;2023-04-01T08:08:15;98829.13;;;6.37;50.54
71697;BME280;68167;59.120;37.898;2023-04-01T08:11:07;98837.75;;;6.59;52.29
71697;BME280;68167;59.120;37.898;2023-04-01T08:14:12;98838.34;;;6.71;51.46
71697;BME280;68167;59.120;37.898;2023-04-01T08:23:27;98837.25;;;7.09;50.80
71697;BME280;68167;59.120;37.898;2023-04-01T08:25:58;98831.47;;;7.22;48.58
71697;BME280;68167;59.120;37.898;2023-04-01T08:28:37;98805.25;;;7.11;48.16
71697;BME280;68167;59.120;37.898;2023-04-01T08:31:18;98778.69;;;6.90;48.30
71697;BME280;68167;59.120;37.898;2023-04-01T08:33:47;98831.75;;;7.26;47.43
71697;BME280;68167;59.120;37.898;2023-04-01T08:36:24;98826.75;;;7.30;46.74
71697;BME280;68167;59.120;37.898;2023-04-01T08:39:31;98844.53;;;7.44;48.31
71697;BME280;68167;59.120;37.898;2023-04-01T08:45:15;98844.28;;;7.41;47.49
71697;BME280;68167;59.120;37.898;2023-04-01T08:54:04;98854.38;;;7.54;45.36
71697;BME280;68167;59.120;37.898;2023-04-01T09:12:25;98781.56;;;7.51;44.21
71697;BME280;68167;59.120;37.898;2023-04-01T09:14:35;98806.22;;;7.62;41.91
71697;BME280;68167;59.120;37.898;2023-04-01T09:20:07;98849.72;;;7.97;42.85
71697;BME280;68167;59.120;37.898;2023-04-01T09:25:53;98847.34;;;8.00;41.87
71697;BME280;68167;59.120;37.898;2023-04-01T09:28:50;98795.34;;;7.64;43.49
71697;BME280;68167;59.120;37.898;2023-04-01T09:34:25;98864.00;;;7.90;41.64
71697;BME280;68167;59.120;37.898;2023-04-01T09:51:13;98867.81;;;8.61;38.72
71697;BME280;68167;59.120;37.898;2023-04-01T10:14:37;98872.16;;;9.41;38.58
71697;BME280;68167;59.120;37.898;2023-04-01T10:29:21;98870.84;;;9.29;38.43
71697;BME280;68167;59.120;37.898;2023-04-01T10:35:07;98852.78;;;9.31;36.41
71697;BME280;68167;59.120;37.898;2023-04-01T10:49:43;98812.84;;;9.56;37.67
71697;BME280;68167;59.120;37.898;2023-04-01T11:19:41;98868.50;;;12.22;35.51
71697;BME280;68167;59.120;37.898;2023-04-01T11:22:33;98883.69;;;12.40;34.23
71697;BME280;68167;59.120;37.898;2023-04-01T11:33:36;98905.56;;;11.62;32.88
71697;BME280;68167;59.120;37.898;2023-04-01T11:39:03;98905.91;;;11.55;34.05
71697;BME280;68167;59.120;37.898;2023-04-01T11:45:12;98912.44;;;11.68;33.86
71697;BME280;68167;59.120;37.898;2023-04-01T11:50:36;98903.00;;;11.51;33.89
71697;BME280;68167;59.120;37.898;2023-04-01T11:56:34;98903.59;;;11.48;33.43
71697;BME280;68167;59.120;37.898;2023-04-01T12:07:36;98923.34;;;11.18;33.44
71697;BME280;68167;59.120;37.898;2023-04-01T12:10:26;98873.47;;;10.71;32.70
71697;BME280;68167;59.120;37.898;2023-04-01T12:18:28;98936.06;;;11.27;34.00
71697;BME280;68167;59.120;37.898;2023-04-01T12:23:57;98936.88;;;11.51;33.18
71697;BME280;68167;59.120;37.898;2023-04-01T12:37:45;98940.69;;;12.11;32.17
71697;BME280;68167;59.120;37.898;2023-04-01T12:40:24;98903.59;;;11.91;31.64
71697;BME280;68167;59.120;37.898;2023-04-01T12:57:29;98901.41;;;11.27;32.45
71697;BME280;68167;59.120;37.898;2023-04-01T13:06:00;98966.75;;;11.48;32.46
71697;BME280;68167;59.120;37.898;2023-04-01T13:16:21;98971.34;;;10.84;31.65
71697;BME280;68167;59.120;37.898;2023-04-01T13:18:58;98904.97;;;10.25;32.06
71697;BME280;68167;59.120;37.898;2023-04-01T13:24:08;98969.19;;;10.47;32.27
71697;BME280;68167;59.120;37.898;2023-04-01T13:35:24;98928.25;;;9.94;32.55
71697;BME280;68167;59.120;37.898;2023-04-01T13:44:07;98942.25;;;10.20;33.51
71697;BME280;68167;59.120;37.898;2023-04-01T13:50:17;98985.59;;;10.60;33.17
71697;BME280;68167;59.120;37.898;2023-04-01T13:52:51;98987.41;;;10.69;32.72
71697;BME280;68167;59.120;37.898;2023-04-01T13:55:39;98978.59;;;10.74;32.81
71697;BME280;68167;59.120;37.898;2023-04-01T14:00:55;98992.16;;;10.77;32.06
71697;BME280;68167;59.120;37.898;2023-04-01T14:15:23;99016.47;;;10.06;32.90
71697;BME280;68167;59.120;37.898;2023-04-01T14:21:12;99002.19;;;9.82;33.42
71697;BME280;68167;59.120;37.898;2023-04-01T14:34:56;99008.44;;;9.06;33.70
71697;BME280;68167;59.120;37.898;2023-04-01T14:37:55;99030.97;;;9.14;34.21
71697;BME280;68167;59.120;37.898;2023-04-01T14:43:47;98964.91;;;8.67;34.37
71697;BME280;68167;59.120;37.898;2023-04-01T14:46:55;99046.94;;;9.09;34.46
71697;BME280;68167;59.120;37.898;2023-04-01T14:49:35;98971.78;;;8.63;34.13
71697;BME280;68167;59.120;37.898;2023-04-01T14:52:31;99020.91;;;8.80;34.23
71697;BME280;68167;59.120;37.898;2023-04-01T14:54:57;98932.94;;;8.01;33.75
71697;BME280;68167;59.120;37.898;2023-04-01T14:57:29;98976.72;;;8.18;34.24
71697;BME280;68167;59.120;37.898;2023-04-01T15:00:17;99025.06;;;8.36;33.80
71697;BME280;68167;59.120;37.898;2023-04-01T15:03:00;99032.72;;;8.32;34.48
71697;BME280;68167;59.120;37.898;2023-04-01T15:05:42;99051.00;;;8.29;34.15
71697;BME280;68167;59.120;37.898;2023-04-01T15:08:26;99050.16;;;8.18;34.28
71697;BME280;68167;59.120;37.898;2023-04-01T15:19:17;99074.34;;;7.79;35.18
71697;BME280;68167;59.120;37.898;2023-04-01T15:41:11;99105.56;;;7.08;38.40
71697;BME280;68167;59.120;37.898;2023-04-01T15:43:44;99043.72;;;6.60;38.54
71697;BME280;68167;59.120;37.898;2023-04-01T15:46:48;99119.44;;;6.93;38.08
71697;BME280;68167;59.120;37.898;2023-04-01T15:49:37;99123.84;;;6.83;38.21
71697;BME280;68167;59.120;37.898;2023-04-01T15:52:22;99127.47;;;6.77;38.59
71697;BME280;68167;59.120;37.898;2023-04-01T16:03:30;99156.50;;;6.28;41.10
71697;BME280;68167;59.120;37.898;2023-04-01T16:11:53;99102.38;;;5.42;43.77
71697;BME280;68167;59.120;37.898;2023-04-01T16:20:14;99192.47;;;5.62;44.39
71697;BME280;68167;59.120;37.898;2023-04-01T16:22:54;99180.94;;;5.51;45.68
71697;BME280;68167;59.120;37.898;2023-04-01T16:25:44;99194.38;;;5.50;45.80
71697;BME280;68167;59.120;37.898;2023-04-01T16:36:48;99190.22;;;5.09;46.83
71697;BME280;68167;59.120;37.898;2023-04-01T16:44:54;99210.41;;;5.03;48.00
71697;BME280;68167;59.120;37.898;2023-04-01T16:47:27;99162.72;;;4.64;50.14
71697;BME280;68167;59.120;37.898;2023-04-01T16:50:17;99218.47;;;4.96;48.96
71697;BME280;68167;59.120;37.898;2023-04-01T16:53:08;99193.75;;;4.74;49.58
71697;BME280;68167;59.120;37.898;2023-04-01T16:58:10;99222.84;;;4.91;51.39
71697;BME280;68167;59.120;37.898;2023-04-01T17:00:48;99162.91;;;4.46;51.02
71697;BME280;68167;59.120;37.898;2023-04-01T17:03:22;99169.44;;;4.44;51.70
71697;BME280;68167;59.120;37.898;2023-04-01T17:11:26;99185.81;;;4.46;52.10
71697;BME280;68167;59.120;37.898;2023-04-01T17:22:33;99255.88;;;4.70;52.46
71697;BME280;68167;59.120;37.898;2023-04-01T17:30:06;99257.50;;;4.59;53.30
71697;BME280;68167;59.120;37.898;2023-04-01T17:33:08;99266.19;;;4.60;52.78
71697;BME280;68167;59.120;37.898;2023-04-01T17:36:02;99265.63;;;4.58;53.43
71697;BME280;68167;59.120;37.898;2023-04-01T17:47:29;99273.00;;;4.44;54.38
71697;BME280;68167;59.120;37.898;2023-04-01T17:50:02;99265.44;;;4.36;54.69
71697;BME280;68167;59.120;37.898;2023-04-01T17:52:47;99255.09;;;4.11;53.63
71697;BME280;68167;59.120;37.898;2023-04-01T18:01:12;99286.13;;;4.21;54.88
71697;BME280;68167;59.120;37.898;2023-04-01T18:13:04;99286.47;;;4.13;55.36
71697;BME280;68167;59.120;37.898;2023-04-01T18:18:17;99289.09;;;4.13;56.29
71697;BME280;68167;59.120;37.898;2023-04-01T18:21:00;99224.72;;;3.74;56.55
71697;BME280;68167;59.120;37.898;2023-04-01T18:23:41;99268.13;;;3.94;56.47
71697;BME280;68167;59.120;37.898;2023-04-01T18:26:22;99221.47;;;3.60;56.01
71697;BME280;68167;59.120;37.898;2023-04-01T18:28:54;99227.09;;;3.63;57.30
71697;BME280;68167;59.120;37.898;2023-04-01T18:31:32;99270.41;;;3.91;56.26
71697;BME280;68167;59.120;37.898;2023-04-01T18:34:17;99288.16;;;3.95;57.25
71697;BME280;68167;59.120;37.898;2023-04-01T18:36:59;99291.94;;;4.00;57.16
71697;BME280;68167;59.120;37.898;2023-04-01T18:39:46;99166.03;;;3.20;57.11
71697;BME280;68167;59.120;37.898;2023-04-01T18:42:40;99305.09;;;4.00;56.76
71697;BME280;68167;59.120;37.898;2023-04-01T18:45:28;99309.78;;;3.97;57.88
71697;BME280;68167;59.120;37.898;2023-04-01T18:50:43;99250.28;;;3.55;58.02
71697;BME280;68167;59.120;37.898;2023-04-01T18:53:38;99310.94;;;3.90;57.20
71697;BME280;68167;59.120;37.898;2023-04-01T18:56:10;99297.03;;;3.71;58.14
71697;BME280;68167;59.120;37.898;2023-04-01T19:02:02;99313.66;;;3.83;57.78
71697;BME280;68167;59.120;37.898;2023-04-01T19:04:39;99231.66;;;3.26;57.98
71697;BME280;68167;59.120;37.898;2023-04-01T19:16:34;99316.34;;;3.65;59.21
71697;BME280;68167;59.120;37.898;2023-04-01T19:28:16;99308.59;;;3.70;58.99
71697;BME280;68167;59.120;37.898;2023-04-01T19:30:56;99229.72;;;3.22;59.79
71697;BME280;68167;59.120;37.898;2023-04-01T19:50:30;99313.09;;;3.93;60.46
71697;BME280;68167;59.120;37.898;2023-04-01T19:53:23;99310.38;;;3.88;60.36
71697;BME280;68167;59.120;37.898;2023-04-01T19:56:14;99240.53;;;3.44;60.56
71697;BME280;68167;59.120;37.898;2023-04-01T20:09:53;99295.34;;;3.77;61.27
71697;BME280;68167;59.120;37.898;2023-04-01T20:13:02;99338.88;;;4.03;61.44
71697;BME280;68167;59.120;37.898;2023-04-01T20:15:41;99215.31;;;3.24;60.65
71697;BME280;68167;59.120;37.898;2023-04-01T20:18:35;99337.72;;;3.98;61.11
71697;BME280;68167;59.120;37.898;2023-04-01T20:21:17;99353.06;;;4.02;61.79
71697;BME280;68167;59.120;37.898;2023-04-01T20:24:04;99354.69;;;4.03;60.89
71697;BME280;68167;59.120;37.898;2023-04-01T20:26:37;99303.78;;;3.67;62.14
71697;BME280;68167;59.120;37.898;2023-04-01T20:31:42;99310.84;;;3.67;62.13
71697;BME280;68167;59.120;37.898;2023-04-01T20:43:00;99357.31;;;4.03;62.16
71697;BME280;68167;59.120;37.898;2023-04-01T20:45:56;99365.00;;;4.04;61.54
71697;BME280;68167;59.120;37.898;2023-04-01T20:48:39;99362.59;;;4.03;62.02
71697;BME280;68167;59.120;37.898;2023-04-01T20:51:13;99355.81;;;3.95;62.44
71697;BME280;68167;59.120;37.898;2023-04-01T20:53:51;99363.03;;;4.00;62.25
71697;BME280;68167;59.120;37.898;2023-04-01T20:56:34;99376.41;;;3.98;62.92
71697;BME280;68167;59.120;37.898;2023-04-01T21:05:55;99380.53;;;3.94;62.97
71697;BME280;68167;59.120;37.898;2023-04-01T21:27:00;99376.34;;;3.75;63.43
71697;BME280;68167;59.120;37.898;2023-04-01T21:35:58;99378.63;;;3.71;63.07
71697;BME280;68167;59.120;37.898;2023-04-01T21:41:11;99304.41;;;3.33;63.75
71697;BME280;68167;59.120;37.898;2023-04-01T21:50:19;99386.28;;;3.73;63.93
71697;BME280;68167;59.120;37.898;2023-04-01T21:53:23;99387.31;;;3.72;63.98
71697;BME280;68167;59.120;37.898;2023-04-01T22:07:28;99332.66;;;3.55;64.61
71697;BME280;68167;59.120;37.898;2023-04-01T22:13:22;99360.94;;;3.60;64.66
71697;BME280;68167;59.120;37.898;2023-04-01T22:18:31;99318.44;;;3.26;64.54
71697;BME280;68167;59.120;37.898;2023-04-01T22:21:15;99387.91;;;3.74;65.30
71697;BME280;68167;59.120;37.898;2023-04-01T22:26:40;99345.09;;;3.48;64.81
71697;BME280;68167;59.120;37.898;2023-04-01T22:29:23;99363.00;;;3.40;64.86
71697;BME280;68167;59.120;37.898;2023-04-01T22:32:03;99402.88;;;3.73;65.15
71697;BME280;68167;59.120;37.898;2023-04-01T22:39:58;99371.63;;;3.47;65.02
71697;BME280;68167;59.120;37.898;2023-04-01T22:53:43;99398.72;;;3.66;66.41
71697;BME280;68167;59.120;37.898;2023-04-01T22:56:17;99401.22;;;3.60;66.36
71697;BME280;68167;59.120;37.898;2023-04-01T23:01:59;99393.91;;;3.62;66.19
71697;BME280;68167;59.120;37.898;2023-04-01T23:04:31;99415.84;;;3.75;65.70
71697;BME280;68167;59.120;37.898;2023-04-01T23:07:04;99408.81;;;3.69;66.26
71697;BME280;68167;59.120;37.898;2023-04-01T23:09:42;99399.97;;;3.63;66.45
71697;BME280;68167;59.120;37.898;2023-04-01T23:12:12;99414.00;;;3.75;66.60
71697;BME280;68167;59.120;37.898;2023-04-01T23:14:47;99420.78;;;3.83;66.28
71697;BME280;68167;59.120;37.898;2023-04-01T23:17:42;99420.34;;;3.86;65.76
71697;BME280;68167;59.120;37.898;2023-04-01T23:35:50;99343.84;;;3.51;65.98
71697;BME280;68167;59.120;37.898;2023-04-01T23:38:20;99372.56;;;3.71;66.24
71697;BME280;68167;59.120;37.898;2023-04-01T23:40:50;99332.16;;;3.47;66.30
71697;BME280;68167;59.120;37.898;2023-04-01T23:45:54;99387.00;;;3.80;66.06
71697;BME280;68167;59.120;37.898;2023-04-01T23:48:28;99403.84;;;3.90;66.15
71697;BME280;68167;59.120;37.898;2023-04-01T23:50:56;99356.25;;;3.62;65.99
71697;BME280;68167;59.120;37.898;2023-04-01T23:53:26;99419.78;;;3.95;66.00